Time;durP1;ratioP1;P1;durP2;ratioP2;P2;SDS_P1;SDS_P2;PMS_P1;PMS_P2;Temp;Humidity;BMP_temperature;BMP_pressure;BME280_temperature;BME280_humidity;BME280_pressure;Samples;Min_cycle;Max_cycle;Signal;HPM_P1;HPM_P2
2022/05/17 00:00:38;;;;;;;12.43;3.33;;;19.20;99.90;;;;;;5074892;28;20103;-73
2022/05/17 00:03:04;;;;;;;8.10;2.53;;;19.10;99.90;;;;;;5079511;28;20111;-73
2022/05/17 00:05:30;;;;;;;10.75;3.30;;;19.10;99.90;;;;;;5093518;28;20028;-73
2022/05/17 00:07:57;;;;;;;9.02;2.42;;;19.00;99.90;;;;;;5094560;28;20042;-72
2022/05/17 00:10:24;;;;;;;9.85;3.35;;;19.00;99.90;;;;;;5093572;28;20024;-77
2022/05/17 00:12:56;;;;;;;8.55;2.92;;;18.90;99.90;;;;;;5094595;28;20024;-73
2022/05/17 00:15:23;;;;;;;10.05;3.08;;;19.00;99.90;;;;;;5094658;28;20027;-74
2022/05/17 00:17:52;;;;;;;14.50;3.30;;;19.20;99.90;;;;;;5094593;28;20047;-73
2022/05/17 00:20:18;;;;;;;7.55;2.92;;;19.20;99.90;;;;;;5093566;28;20065;-76
2022/05/17 00:22:44;;;;;;;15.85;3.28;;;19.30;99.90;;;;;;5094154;28;20392;-76
2022/05/17 00:25:13;;;;;;;13.07;3.13;;;19.20;99.90;;;;;;5094454;28;20020;-76
2022/05/17 00:27:39;;;;;;;6.88;2.70;;;19.30;99.90;;;;;;5077012;28;20481;-73
2022/05/17 00:30:06;;;;;;;8.73;2.50;;;19.30;99.90;;;;;;5074221;28;20031;-76
2022/05/17 00:32:32;;;;;;;11.93;2.97;;;19.20;99.90;;;;;;5073873;28;20115;-75
2022/05/17 00:34:58;;;;;;;12.27;3.00;;;19.20;99.90;;;;;;5074032;28;20503;-76
2022/05/17 00:37:24;;;;;;;7.90;2.78;;;19.00;99.90;;;;;;5074062;28;20036;-75
2022/05/17 00:39:50;;;;;;;22.40;2.67;;;18.90;99.90;;;;;;5074009;28;20485;-77
2022/05/17 00:42:15;;;;;;;13.70;3.05;;;18.70;99.90;;;;;;5072714;28;20047;-75
2022/05/17 00:44:45;;;;;;;10.20;3.28;;;18.90;99.90;;;;;;5073821;28;20029;-75
2022/05/17 00:47:37;;;;;;;11.90;3.08;;;18.70;99.90;;;;;;5081344;28;20123;-75
2022/05/17 00:50:08;;;;;;;8.18;2.70;;;18.70;99.90;;;;;;5094055;28;20042;-75
2022/05/17 00:52:44;;;;;;;14.15;3.33;;;18.90;99.90;;;;;;5094014;28;20044;-76
2022/05/17 00:55:19;;;;;;;8.02;2.60;;;19.00;99.90;;;;;;5094060;28;20020;-75
2022/05/17 00:58:00;;;;;;;11.52;2.92;;;18.90;99.90;;;;;;5092511;28;20039;-75
2022/05/17 01:00:30;;;;;;;8.70;3.05;;;18.60;99.90;;;;;;5093790;28;20206;-75
2022/05/17 01:03:04;;;;;;;8.23;2.95;;;18.20;99.90;;;;;;5093625;28;20122;-75
2022/05/17 01:05:34;;;;;;;12.93;3.45;;;18.40;99.90;;;;;;5093456;28;20052;-75
2022/05/17 01:08:01;;;;;;;12.07;2.90;;;18.50;99.90;;;;;;5093338;28;20113;-75
2022/05/17 01:10:29;;;;;;;12.00;2.83;;;18.70;99.90;;;;;;5093604;28;20056;-75
2022/05/17 01:15:41;;;;;;;10.07;2.40;;;19.10;99.90;;;;;;5093532;28;20073;-75
2022/05/17 01:18:07;;;;;;;11.88;3.25;;;18.90;99.90;;;;;;5093537;28;20020;-75
2022/05/17 01:20:34;;;;;;;4.68;2.70;;;18.70;99.90;;;;;;5092039;28;20115;-75
2022/05/17 01:23:00;;;;;;;10.80;3.05;;;18.40;99.90;;;;;;5093348;28;20066;-75
2022/05/17 01:25:28;;;;;;;12.00;2.55;;;18.40;99.90;;;;;;5093449;28;20028;-76
2022/05/17 01:28:19;;;;;;;9.77;2.95;;;18.30;99.90;;;;;;5093395;28;20059;-75
2022/05/17 01:30:46;;;;;;;11.30;2.90;;;18.40;99.90;;;;;;5093074;28;20035;-75
2022/05/17 01:33:20;;;;;;;13.52;3.75;;;18.10;99.90;;;;;;5091789;28;20027;-75
2022/05/17 01:35:47;;;;;;;15.88;3.03;;;17.90;99.90;;;;;;5092818;28;20391;-75
2022/05/17 01:38:13;;;;;;;9.02;2.80;;;17.70;99.90;;;;;;5093100;28;20408;-75
2022/05/17 01:40:40;;;;;;;14.88;2.40;;;17.60;99.90;;;;;;5093280;28;20135;-75
2022/05/17 01:43:07;;;;;;;7.07;2.92;;;17.50;99.90;;;;;;5093045;28;20062;-76
2022/05/17 01:45:32;;;;;;;7.93;2.75;;;17.60;99.90;;;;;;5093270;28;20042;-76
2022/05/17 01:47:58;;;;;;;11.65;2.90;;;17.60;99.90;;;;;;5078255;28;20020;-75
2022/05/17 01:50:24;;;;;;;12.82;3.33;;;17.40;99.90;;;;;;5071379;28;20114;-75
2022/05/17 01:52:50;;;;;;;8.75;2.72;;;17.20;99.90;;;;;;5072761;28;20094;-75
2022/05/17 01:55:16;;;;;;;9.82;2.70;;;17.60;99.90;;;;;;5072658;28;20058;-76
2022/05/17 01:57:42;;;;;;;6.95;2.65;;;17.90;99.90;;;;;;5072925;28;20480;-75
2022/05/17 02:00:11;;;;;;;12.32;3.38;;;17.70;99.90;;;;;;5072642;28;20021;-76
2022/05/17 02:02:37;;;;;;;13.77;3.42;;;17.70;99.90;;;;;;5073676;28;20027;-75
2022/05/17 02:05:04;;;;;;;11.38;3.13;;;17.70;99.90;;;;;;5092386;28;20034;-75
2022/05/17 02:07:30;;;;;;;10.85;3.50;;;17.90;99.90;;;;;;5092868;28;20036;-75
2022/05/17 02:09:56;;;;;;;12.82;3.47;;;18.10;99.90;;;;;;5074812;28;20039;-75
2022/05/17 02:12:22;;;;;;;9.43;2.80;;;18.30;99.90;;;;;;5092842;28;20032;-75
2022/05/17 02:14:48;;;;;;;11.02;3.90;;;18.30;99.90;;;;;;5091289;28;20020;-75
2022/05/17 02:17:13;;;;;;;15.02;3.70;;;18.10;99.90;;;;;;5092852;28;20605;-75
2022/05/17 02:19:40;;;;;;;10.82;3.10;;;18.20;99.90;;;;;;5091136;28;20392;-74
2022/05/17 02:22:06;;;;;;;9.52;3.20;;;17.90;99.90;;;;;;5092495;28;20033;-74
2022/05/17 02:24:32;;;;;;;10.93;2.80;;;17.60;99.90;;;;;;5092456;28;20031;-75
2022/05/17 02:26:58;;;;;;;13.18;3.70;;;17.60;99.90;;;;;;5092735;28;20119;-74
2022/05/17 02:29:26;;;;;;;10.32;3.20;;;17.50;99.90;;;;;;5092900;28;20032;-74
2022/05/17 02:31:52;;;;;;;9.40;3.33;;;17.60;99.90;;;;;;5091321;28;20036;-74
2022/05/17 02:34:18;;;;;;;10.77;2.65;;;17.90;99.90;;;;;;5092166;28;20513;-75
2022/05/17 02:36:45;;;;;;;8.13;3.35;;;18.00;99.90;;;;;;5092514;28;20028;-75
2022/05/17 02:39:12;;;;;;;13.27;3.53;;;18.10;99.90;;;;;;5092667;28;20024;-76
2022/05/17 02:41:38;;;;;;;10.02;3.70;;;17.90;99.90;;;;;;5092516;28;20043;-76
2022/05/17 02:44:04;;;;;;;21.73;5.30;;;18.00;99.90;;;;;;5092978;28;20036;-75
2022/05/17 02:46:31;;;;;;;11.10;3.60;;;18.10;99.90;;;;;;5094102;28;20020;-74
2022/05/17 02:49:01;;;;;;;13.48;3.75;;;18.30;99.90;;;;;;5075941;28;20546;-74
2022/05/17 02:51:27;;;;;;;12.32;4.07;;;18.40;99.90;;;;;;5076266;28;20020;-75
2022/05/17 02:53:53;;;;;;;10.95;4.03;;;18.20;99.90;;;;;;5076097;28;20473;-75
2022/05/17 02:56:19;;;;;;;7.13;3.45;;;18.20;99.90;;;;;;5075807;28;20024;-75
2022/05/17 02:58:45;;;;;;;10.73;3.58;;;18.10;99.90;;;;;;5074685;28;20040;-75
2022/05/17 03:01:11;;;;;;;13.20;3.72;;;18.30;99.90;;;;;;5075776;28;20028;-75
2022/05/17 03:03:39;;;;;;;11.45;3.75;;;18.40;99.90;;;;;;5084889;28;20020;-75
2022/05/17 03:06:05;;;;;;;11.23;3.40;;;18.30;99.90;;;;;;5095700;28;20115;-75
2022/05/17 03:08:31;;;;;;;10.10;3.65;;;18.00;99.90;;;;;;5096008;28;20028;-75
2022/05/17 03:10:57;;;;;;;11.45;3.50;;;18.20;99.90;;;;;;5095874;28;20044;-75
2022/05/17 03:13:22;;;;;;;12.18;3.45;;;18.30;99.90;;;;;;5094746;28;20074;-74
2022/05/17 03:15:52;;;;;;;12.63;3.40;;;18.50;99.90;;;;;;5095626;28;20089;-75
2022/05/17 03:18:17;;;;;;;11.70;3.83;;;18.30;99.90;;;;;;5095529;28;20406;-75
2022/05/17 03:20:43;;;;;;;21.45;4.03;;;18.20;99.90;;;;;;5094400;28;20024;-76
2022/05/17 03:23:09;;;;;;;13.20;4.25;;;18.20;99.90;;;;;;5095733;28;20024;-75
2022/05/17 03:25:35;;;;;;;8.57;3.80;;;18.00;99.90;;;;;;5095632;28;20594;-74
2022/05/17 03:28:01;;;;;;;15.13;4.00;;;18.00;99.90;;;;;;5094184;28;20392;-75
2022/05/17 03:30:27;;;;;;;17.90;4.43;;;17.60;99.90;;;;;;5095099;28;20028;-73
2022/05/17 03:32:53;;;;;;;13.80;3.97;;;17.50;99.90;;;;;;5095279;28;20050;-73
2022/05/17 03:35:20;;;;;;;11.55;4.05;;;17.50;99.90;;;;;;5095327;28;20134;-73
2022/05/17 03:37:45;;;;;;;12.38;4.07;;;17.80;99.90;;;;;;5094036;28;20122;-74
2022/05/17 03:40:11;;;;;;;11.02;3.90;;;17.90;99.90;;;;;;5095427;28;20023;-73
2022/05/17 03:42:38;;;;;;;12.52;4.53;;;17.90;99.90;;;;;;5095203;28;20028;-74
2022/05/17 03:45:05;;;;;;;12.82;4.43;;;17.80;99.90;;;;;;5095293;28;20020;-73
2022/05/17 03:47:31;;;;;;;14.45;4.70;;;18.00;99.90;;;;;;5083778;28;20436;-74
2022/05/17 03:49:57;;;;;;;18.52;4.75;;;18.00;99.90;;;;;;5073942;28;20115;-74
2022/05/17 03:52:31;;;;;;;10.40;4.50;;;18.00;99.90;;;;;;5073509;28;20165;-74
2022/05/17 03:54:58;;;;;;;12.05;4.28;;;18.20;99.90;;;;;;5074522;28;20044;-73
2022/05/17 03:57:25;;;;;;;15.30;4.63;;;18.30;99.90;;;;;;5074646;28;20075;-74
2022/05/17 03:59:52;;;;;;;16.67;4.72;;;18.40;99.90;;;;;;5074774;28;20060;-74
2022/05/17 04:02:18;;;;;;;15.90;4.63;;;18.20;99.90;;;;;;5074285;28;20021;-74
2022/05/17 04:04:44;;;;;;;10.07;4.18;;;18.00;99.90;;;;;;5093152;28;20093;-73
2022/05/17 04:07:10;;;;;;;11.18;4.80;;;18.30;99.90;;;;;;5093378;28;20039;-74
2022/05/17 04:09:35;;;;;;;11.10;4.65;;;18.20;99.90;;;;;;5095053;28;20028;-74
2022/05/17 04:12:03;;;;;;;9.93;4.30;;;18.20;99.90;;;;;;5094614;28;20044;-74
2022/05/17 04:14:30;;;;;;;15.00;4.63;;;18.40;99.90;;;;;;5094568;28;20016;-74
2022/05/17 04:16:56;;;;;;;12.70;4.60;;;18.30;99.90;;;;;;5094615;28;20043;-73
2022/05/17 04:19:22;;;;;;;12.45;4.43;;;18.30;99.90;;;;;;5093328;28;20092;-74
2022/05/17 04:21:48;;;;;;;10.80;4.07;;;18.40;99.90;;;;;;5094583;28;20081;-74
2022/05/17 04:24:14;;;;;;;11.35;4.38;;;18.40;99.90;;;;;;5094277;28;20024;-74
2022/05/17 04:26:41;;;;;;;13.20;3.75;;;18.30;99.90;;;;;;5094493;28;20495;-73
2022/05/17 04:29:08;;;;;;;13.98;4.35;;;18.40;99.90;;;;;;5093055;28;20035;-74
2022/05/17 04:31:35;;;;;;;14.85;4.55;;;18.50;99.90;;;;;;5094404;28;20077;-74
2022/05/17 04:34:03;;;;;;;15.02;4.72;;;18.50;99.90;;;;;;5094259;28;20031;-74
2022/05/17 04:36:29;;;;;;;13.45;4.85;;;18.50;99.90;;;;;;5094227;28;20024;-73
2022/05/17 04:38:55;;;;;;;12.25;4.10;;;18.20;99.90;;;;;;5094814;28;20040;-74
2022/05/17 04:41:21;;;;;;;12.20;3.92;;;18.10;99.90;;;;;;5093011;28;20031;-74
2022/05/17 04:43:47;;;;;;;10.07;4.18;;;18.40;99.90;;;;;;5092550;28;20115;-74
2022/05/17 04:46:13;;;;;;;15.27;4.60;;;18.60;99.90;;;;;;5094100;28;20038;-74
2022/05/17 04:48:40;;;;;;;17.77;4.20;;;18.30;99.90;;;;;;5073546;28;20029;-74
2022/05/17 04:51:08;;;;;;;15.35;4.28;;;18.40;99.90;;;;;;5073776;28;20035;-74
2022/05/17 04:53:35;;;;;;;11.85;4.15;;;18.40;99.90;;;;;;5073676;28;20473;-74
2022/05/17 04:56:01;;;;;;;14.48;4.60;;;18.50;99.90;;;;;;5073600;28;20040;-74
2022/05/17 04:58:27;;;;;;;14.55;4.78;;;18.70;99.90;;;;;;5073199;28;20418;-74
2022/05/17 05:00:52;;;;;;;12.18;3.67;;;18.80;99.90;;;;;;5072427;28;20092;-74
2022/05/17 05:03:18;;;;;;;14.82;4.68;;;18.70;99.90;;;;;;5080125;28;20472;-74
2022/05/17 05:05:44;;;;;;;12.45;4.50;;;18.80;99.90;;;;;;5093097;28;20457;-74
2022/05/17 05:08:10;;;;;;;14.20;5.38;;;18.80;99.90;;;;;;5092164;28;20043;-74
2022/05/17 05:10:36;;;;;;;14.07;4.70;;;18.70;99.90;;;;;;5093604;28;20069;-74
2022/05/17 05:13:02;;;;;;;13.25;4.90;;;18.50;99.90;;;;;;5093455;28;20115;-74
2022/05/17 05:15:28;;;;;;;12.10;4.57;;;18.50;99.90;;;;;;5093541;28;20568;-75
2022/05/17 05:17:54;;;;;;;15.25;4.28;;;18.10;99.90;;;;;;5093584;28;20024;-73
2022/05/17 05:20:20;;;;;;;13.02;4.20;;;18.10;99.90;;;;;;5093355;28;20048;-74
2022/05/17 05:22:46;;;;;;;14.43;4.38;;;18.50;99.90;;;;;;5093083;28;20055;-74
2022/05/17 05:25:13;;;;;;;13.50;4.05;;;18.40;99.90;;;;;;5093536;28;20024;-74
2022/05/17 05:27:41;;;;;;;14.60;4.63;;;18.30;99.90;;;;;;5091885;28;20024;-74
2022/05/17 05:30:10;;;;;;;18.25;4.63;;;18.30;99.90;;;;;;5092127;28;20157;-74
2022/05/17 05:32:36;;;;;;;14.43;4.18;;;18.30;99.90;;;;;;5093216;28;20032;-74
2022/05/17 05:35:03;;;;;;;22.38;4.68;;;18.50;99.90;;;;;;5093008;28;20376;-74
2022/05/17 05:37:30;;;;;;;16.13;4.70;;;18.60;99.90;;;;;;5093201;28;20043;-73
2022/05/17 05:39:55;;;;;;;12.15;3.78;;;18.80;99.90;;;;;;5093167;28;20036;-73
2022/05/17 05:42:21;;;;;;;17.90;5.07;;;19.00;99.90;;;;;;5092834;28;20020;-74
2022/05/17 05:44:48;;;;;;;17.70;4.32;;;18.90;99.90;;;;;;5093080;28;20413;-74
2022/05/17 05:47:14;;;;;;;20.67;5.05;;;18.90;99.90;;;;;;5084759;28;20082;-73
2022/05/17 05:49:40;;;;;;;18.27;4.80;;;19.20;99.90;;;;;;5072765;28;20481;-73
2022/05/17 05:52:06;;;;;;;17.45;4.45;;;19.20;99.90;;;;;;5085448;28;20528;-74
2022/05/17 05:54:32;;;;;;;18.27;4.10;;;19.30;99.90;;;;;;5096863;28;20502;-73
2022/05/17 05:57:01;;;;;;;20.35;4.18;;;19.30;99.90;;;;;;5078700;28;20024;-74
2022/05/17 05:59:28;;;;;;;21.33;4.68;;;19.10;99.90;;;;;;5107876;28;20028;-74
2022/05/17 06:01:54;;;;;;;14.13;4.35;;;19.00;99.90;;;;;;5099720;28;20055;-74
2022/05/17 06:04:20;;;;;;;19.23;4.70;;;18.80;99.90;;;;;;5107273;28;20032;-74
2022/05/17 06:06:47;;;;;;;20.80;5.20;;;18.90;99.90;;;;;;5098161;28;20024;-74
2022/05/17 06:09:12;;;;;;;25.52;5.15;;;19.10;99.90;;;;;;5109200;28;20110;-74
2022/05/17 06:11:38;;;;;;;18.33;4.85;;;19.00;99.90;;;;;;5097082;28;20175;-75
2022/05/17 06:14:04;;;;;;;24.08;4.72;;;19.00;99.90;;;;;;5104372;28;20026;-74
2022/05/17 06:16:30;;;;;;;19.02;4.43;;;19.00;99.90;;;;;;5104371;28;20063;-74
2022/05/17 06:18:56;;;;;;;17.70;4.13;;;19.00;99.90;;;;;;5097681;28;20039;-76
2022/05/17 06:21:23;;;;;;;17.77;4.25;;;19.00;99.90;;;;;;5108265;28;20025;-76
2022/05/17 06:23:49;;;;;;;11.85;3.80;;;19.10;99.90;;;;;;5110140;28;20031;-75
2022/05/17 06:26:15;;;;;;;12.82;3.95;;;19.10;99.90;;;;;;5104910;28;20020;-75
2022/05/17 06:28:41;;;;;;;17.38;4.38;;;19.20;99.90;;;;;;5101775;28;20020;-75
2022/05/17 06:31:07;;;;;;;21.58;4.47;;;19.20;99.90;;;;;;5112981;28;20031;-75
2022/05/17 06:33:33;;;;;;;12.50;3.97;;;19.30;99.90;;;;;;5100500;28;20479;-76
2022/05/17 06:35:59;;;;;;;12.77;4.20;;;19.20;99.90;;;;;;5108540;28;20038;-75
2022/05/17 06:38:24;;;;;;;17.00;4.07;;;19.20;99.90;;;;;;5107537;28;20039;-75
2022/05/17 06:40:51;;;;;;;14.82;4.05;;;19.20;99.90;;;;;;5100963;28;20093;-75
2022/05/17 06:43:17;;;;;;;22.00;4.03;;;19.30;99.90;;;;;;5113212;28;20019;-75
2022/05/17 06:45:43;;;;;;;17.95;3.30;;;18.90;99.90;;;;;;5101418;28;20024;-74
2022/05/17 06:48:09;;;;;;;12.65;3.90;;;18.90;99.90;;;;;;5109557;28;20024;-75
2022/05/17 06:50:36;;;;;;;17.67;3.90;;;18.80;99.90;;;;;;5102709;28;20104;-75
2022/05/17 06:53:04;;;;;;;14.98;3.83;;;18.70;99.90;;;;;;5112666;28;20115;-75
2022/05/17 06:55:31;;;;;;;18.13;3.50;;;18.80;99.90;;;;;;5097910;28;20023;-74
2022/05/17 06:57:59;;;;;;;19.30;4.53;;;18.90;99.90;;;;;;5108396;28;20059;-75
2022/05/17 07:00:24;;;;;;;13.05;3.72;;;18.90;99.90;;;;;;5100932;28;20063;-74
2022/05/17 07:02:50;;;;;;;19.80;4.15;;;18.90;99.90;;;;;;5085997;28;20036;-75
2022/05/17 07:05:16;;;;;;;22.27;4.20;;;19.10;99.90;;;;;;5082725;28;20029;-75
2022/05/17 07:07:42;;;;;;;22.88;4.25;;;19.30;99.90;;;;;;5075315;28;20043;-74
2022/05/17 07:13:12;;;;;;;20.77;4.22;;;19.60;99.90;;;;;;5105533;28;20472;-75
2022/05/17 07:15:40;;;;;;;21.83;4.05;;;19.60;99.90;;;;;;5111023;28;20492;-75
2022/05/17 07:18:07;;;;;;;19.75;4.10;;;20.00;99.90;;;;;;5089825;28;20033;-74
2022/05/17 07:20:33;;;;;;;23.20;4.10;;;19.90;99.90;;;;;;5075198;28;20481;-74
2022/05/17 07:22:59;;;;;;;23.15;4.88;;;20.10;99.90;;;;;;5075238;28;20024;-74
2022/05/17 07:25:25;;;;;;;21.67;3.97;;;20.30;99.90;;;;;;5074189;28;20029;-74
2022/05/17 07:27:51;;;;;;;21.30;3.60;;;20.50;99.90;;;;;;5074298;28;20021;-74
2022/05/17 07:30:17;;;;;;;17.25;3.75;;;20.60;99.90;;;;;;5073682;28;20025;-74
2022/05/17 07:32:43;;;;;;;12.02;3.53;;;20.40;99.90;;;;;;5075181;28;20477;-74
2022/05/17 07:35:09;;;;;;;11.13;2.97;;;20.60;99.90;;;;;;5075153;28;20070;-74
2022/05/17 07:37:35;;;;;;;22.63;3.50;;;20.70;99.90;;;;;;5075143;28;20527;-73
2022/05/17 07:40:00;;;;;;;14.05;3.30;;;20.90;99.90;;;;;;5075280;28;20382;-74
2022/05/17 07:42:27;;;;;;;17.13;2.75;;;21.00;99.90;;;;;;5075247;28;20031;-74
2022/05/17 07:44:52;;;;;;;12.88;3.35;;;21.00;99.90;;;;;;5075092;28;20035;-74
2022/05/17 07:47:18;;;;;;;10.65;3.17;;;20.70;99.90;;;;;;5083351;28;20032;-73
2022/05/17 07:49:44;;;;;;;16.85;2.42;;;20.70;99.90;;;;;;5094036;28;20065;-74
2022/05/17 07:52:11;;;;;;;11.45;3.30;;;20.90;99.90;;;;;;5094913;28;20040;-74
2022/05/17 07:54:37;;;;;;;9.57;3.35;;;20.70;99.90;;;;;;5094885;28;20024;-74
2022/05/17 07:57:04;;;;;;;9.07;3.00;;;20.40;99.90;;;;;;5095011;28;20059;-74
2022/05/17 07:59:30;;;;;;;8.75;2.95;;;20.40;99.90;;;;;;5095057;28;20039;-74
2022/05/17 08:01:56;;;;;;;10.15;3.33;;;20.30;99.90;;;;;;5094672;28;20020;-74
2022/05/17 08:04:23;;;;;;;8.95;3.08;;;20.50;99.90;;;;;;5090276;28;20024;-74
2022/05/17 08:06:50;;;;;;;9.75;3.45;;;20.40;99.90;;;;;;5094403;28;20055;-74
2022/05/17 08:09:16;;;;;;;13.18;3.85;;;20.60;99.90;;;;;;5094802;28;20028;-74
2022/05/17 08:11:43;;;;;;;16.48;4.63;;;20.40;99.90;;;;;;5094868;28;20048;-74
2022/05/17 08:14:09;;;;;;;9.05;3.78;;;20.60;99.90;;;;;;5094860;28;20028;-74
2022/05/17 08:16:37;;;;;;;8.82;4.10;;;20.30;99.90;;;;;;5094625;28;20042;-74
2022/05/17 08:19:03;;;;;;;11.73;4.38;;;20.30;99.90;;;;;;5094782;28;20089;-74
2022/05/17 08:21:29;;;;;;;10.85;4.10;;;20.30;99.90;;;;;;5094566;28;20040;-74
2022/05/17 08:23:55;;;;;;;11.93;3.88;;;20.60;99.90;;;;;;5094563;28;20031;-74
2022/05/17 08:29:06;;;;;;;21.80;4.00;;;21.00;99.90;;;;;;5094516;28;20036;-75
2022/05/17 08:31:31;;;;;;;13.40;4.70;;;20.80;99.90;;;;;;5094856;28;20097;-74
2022/05/17 08:33:57;;;;;;;13.40;5.63;;;20.90;99.90;;;;;;5094600;28;20030;-74
2022/05/17 08:36:23;;;;;;;14.70;3.97;;;21.00;99.90;;;;;;5094323;28;20039;-74
2022/05/17 08:38:50;;;;;;;12.00;4.15;;;21.10;99.90;;;;;;5094178;28;20115;-74
2022/05/17 08:41:37;;;;;;;9.85;3.90;;;21.60;99.90;;;;;;5092292;28;20441;-74
2022/05/17 08:44:08;;;;;;;11.95;4.00;;;21.40;99.90;;;;;;5094146;28;20085;-75
2022/05/17 08:46:57;;;;;;;9.70;3.30;;;21.60;99.90;;;;;;5091344;28;20024;-74
2022/05/17 08:49:29;;;;;;;14.48;3.53;;;21.70;99.90;;;;;;5073916;28;20377;-74
2022/05/17 08:52:07;;;;;;;8.77;3.50;;;21.90;99.90;;;;;;5072192;28;20040;-74
2022/05/17 08:54:43;;;;;;;14.80;4.35;;;22.10;99.90;;;;;;5073814;28;20025;-75
2022/05/17 08:57:26;;;;;;;16.70;4.10;;;22.00;99.90;;;;;;5073821;28;20439;-74
2022/05/17 08:59:52;;;;;;;9.40;3.85;;;22.00;99.90;;;;;;5072549;28;20486;-74
2022/05/17 09:02:34;;;;;;;9.85;3.65;;;22.30;99.90;;;;;;5072863;28;20376;-74
2022/05/17 09:05:13;;;;;;;8.35;3.50;;;22.50;99.90;;;;;;5073238;28;20122;-74
2022/05/17 09:07:55;;;;;;;9.23;4.07;;;22.40;99.90;;;;;;5073448;28;20445;-74
2022/05/17 09:10:29;;;;;;;9.18;3.17;;;22.40;99.90;;;;;;5073741;28;20090;-75
2022/05/17 09:12:58;;;;;;;12.05;3.80;;;22.50;99.90;;;;;;5073376;28;20082;-74
2022/05/17 09:15:24;;;;;;;8.88;3.92;;;22.70;99.90;;;;;;5073586;28;20052;-73
2022/05/17 09:17:50;;;;;;;10.75;4.30;;;23.00;99.90;;;;;;5072959;28;20504;-74
2022/05/17 09:20:30;;;;;;;14.80;4.80;;;23.10;99.90;;;;;;5073258;28;20096;-74
2022/05/17 09:22:58;;;;;;;15.30;4.53;;;23.00;99.90;;;;;;5073652;28;20047;-74
2022/05/17 09:25:43;;;;;;;9.20;4.38;;;23.20;99.90;;;;;;5073719;28;20020;-75
2022/05/17 09:28:16;;;;;;;9.98;3.88;;;23.40;99.90;;;;;;5073232;28;20052;-74
2022/05/17 09:30:42;;;;;;;11.63;5.10;;;23.40;99.90;;;;;;5072015;28;20104;-75
2022/05/17 09:33:11;;;;;;;10.82;5.60;;;23.90;99.90;;;;;;5073124;28;20124;-75
2022/05/17 09:36:00;;;;;;;9.73;4.55;;;23.90;99.90;;;;;;5072898;28;20381;-75
2022/05/17 09:38:30;;;;;;;14.82;5.65;;;24.10;99.90;;;;;;5073127;28;20070;-74
2022/05/17 09:40:57;;;;;;;9.77;5.77;;;24.20;99.90;;;;;;5055209;28;20550;-74
2022/05/17 09:43:39;;;;;;;14.55;5.80;;;23.80;99.90;;;;;;5073172;28;20465;-74
2022/05/17 09:46:15;;;;;;;9.27;4.80;;;23.70;99.90;;;;;;5073375;28;20392;-74
2022/05/17 09:54:47;;;;;;;17.27;5.40;;;24.00;99.90;;;;;;5072581;28;20028;-75
2022/05/17 09:57:21;;;;;;;12.75;6.15;;;24.70;99.90;;;;;;5072869;28;20032;-74
2022/05/17 09:59:49;;;;;;;19.58;6.05;;;24.60;99.80;;;;;;5072850;28;20024;-74
2022/05/17 10:02:29;;;;;;;21.35;7.07;;;24.50;99.90;;;;;;5072813;28;20032;-75
2022/05/17 10:04:57;;;;;;;17.75;7.15;;;24.50;99.90;;;;;;5071181;28;20119;-74
2022/05/17 10:07:29;;;;;;;14.45;6.20;;;24.20;99.90;;;;;;5071280;28;20028;-74
2022/05/17 10:09:55;;;;;;;12.35;5.32;;;24.50;99.90;;;;;;5072468;28;20107;-74
2022/05/17 10:12:29;;;;;;;22.98;8.75;;;24.70;99.50;;;;;;5072512;28;20042;-75
2022/05/17 10:15:05;;;;;;;15.48;5.95;;;24.90;99.40;;;;;;5072476;28;20567;-74
2022/05/17 10:17:39;;;;;;;12.68;6.30;;;25.10;99.40;;;;;;5072236;28;20029;-75
2022/05/17 10:20:11;;;;;;;20.92;6.60;;;25.40;99.50;;;;;;5072529;28;20024;-75
2022/05/17 10:22:51;;;;;;;14.43;6.43;;;25.00;98.80;;;;;;5072504;28;20064;-74
2022/05/17 10:25:29;;;;;;;18.23;6.35;;;24.80;99.90;;;;;;5072425;28;20035;-74
2022/05/17 10:28:18;;;;;;;11.05;7.25;;;25.00;99.70;;;;;;5072726;28;20125;-74
2022/05/17 10:30:59;;;;;;;13.80;6.60;;;24.90;99.90;;;;;;5071939;28;20111;-75
2022/05/17 10:33:35;;;;;;;22.00;7.60;;;25.20;99.80;;;;;;5071025;28;20146;-74
2022/05/17 10:36:05;;;;;;;19.85;6.55;;;25.60;98.10;;;;;;5072287;28;20036;-75
2022/05/17 10:38:43;;;;;;;19.27;6.93;;;25.50;98.80;;;;;;5072337;28;20554;-75
2022/05/17 10:41:12;;;;;;;16.88;6.57;;;25.60;98.20;;;;;;5070959;28;20044;-74
2022/05/17 10:43:41;;;;;;;20.30;6.72;;;25.80;98.50;;;;;;5072394;28;20071;-76
2022/05/17 10:46:17;;;;;;;15.45;7.00;;;25.60;98.20;;;;;;5072083;28;20025;-74
2022/05/17 10:49:11;;;;;;;24.35;6.43;;;25.60;98.70;;;;;;5072370;28;20029;-72
2022/05/17 10:51:59;;;;;;;16.67;7.38;;;25.70;99.00;;;;;;5071959;28;20071;-74
2022/05/17 10:54:49;;;;;;;18.65;7.32;;;25.50;98.70;;;;;;5072439;28;20488;-75
2022/05/17 10:57:29;;;;;;;14.02;7.90;;;25.90;98.30;;;;;;5072027;28;20033;-74
2022/05/17 11:00:03;;;;;;;15.50;7.20;;;26.10;98.40;;;;;;5072023;28;20040;-74
2022/05/17 11:02:50;;;;;;;18.98;7.00;;;26.00;98.10;;;;;;5071766;28;20052;-76
2022/05/17 11:05:40;;;;;;;9.43;6.45;;;26.30;97.60;;;;;;5094056;28;20035;-73
2022/05/17 11:08:36;;;;;;;14.30;6.45;;;26.40;96.80;;;;;;5096058;28;20123;-73
2022/05/17 11:11:28;;;;;;;18.20;6.30;;;26.90;96.80;;;;;;5095845;28;20063;-72
2022/05/17 11:14:04;;;;;;;13.00;6.35;;;27.50;96.10;;;;;;5084701;28;20106;-73
2022/05/17 11:16:58;;;;;;;16.63;6.05;;;27.50;96.20;;;;;;5075300;28;20029;-72
2022/05/17 11:19:34;;;;;;;12.20;6.18;;;28.10;95.60;;;;;;5075485;28;20082;-72
2022/05/17 11:22:07;;;;;;;17.48;6.18;;;28.50;95.40;;;;;;5075186;28;20025;-73
2022/05/17 11:24:55;;;;;;;13.73;5.93;;;28.70;95.40;;;;;;5075402;28;20461;-72
2022/05/17 11:27:46;;;;;;;15.93;5.82;;;28.50;95.30;;;;;;5074920;28;20044;-73
2022/05/17 11:30:44;;;;;;;19.92;6.07;;;27.90;94.50;;;;;;5094386;28;20020;-72
2022/05/17 11:33:30;;;;;;;19.10;7.18;;;27.80;95.60;;;;;;5083175;28;20059;-72
2022/05/17 11:36:07;;;;;;;16.77;5.45;;;27.50;95.10;;;;;;5077445;28;20044;-72
2022/05/17 11:38:35;;;;;;;20.67;7.15;;;27.90;95.20;;;;;;5085709;28;20032;-72
2022/05/17 11:41:21;;;;;;;15.13;5.28;;;28.10;94.60;;;;;;5086928;28;20027;-72
2022/05/17 11:44:18;;;;;;;10.63;5.32;;;28.50;95.30;;;;;;5105774;28;20035;-73
2022/05/17 11:46:46;;;;;;;11.32;5.35;;;28.90;93.70;;;;;;5112680;28;20039;-73
2022/05/17 11:49:12;;;;;;;9.02;5.25;;;28.50;94.00;;;;;;5100967;28;20469;-73
2022/05/17 11:51:56;;;;;;;19.13;5.57;;;28.50;94.10;;;;;;5095201;28;20047;-73
2022/05/17 11:54:42;;;;;;;15.63;5.30;;;28.00;94.80;;;;;;5097854;28;20594;-72
2022/05/17 11:57:32;;;;;;;10.13;5.05;;;28.30;94.60;;;;;;5083863;28;20042;-72
2022/05/17 12:00:09;;;;;;;7.18;4.82;;;28.50;94.10;;;;;;5095939;28;20051;-72
2022/05/17 12:02:43;;;;;;;14.55;5.30;;;29.00;94.70;;;;;;5085437;28;20117;-73
2022/05/17 12:05:37;;;;;;;15.80;5.20;;;29.90;93.70;;;;;;5079217;28;20030;-73
2022/05/17 12:08:44;;;;;;;7.57;4.38;;;30.10;92.80;;;;;;5097340;28;20287;-73
2022/05/17 12:11:13;;;;;;;12.75;3.67;;;29.00;90.40;;;;;;5087651;28;20038;-73
2022/05/17 12:14:01;;;;;;;14.57;4.20;;;29.60;92.90;;;;;;5112692;28;20066;-73
2022/05/17 12:16:30;;;;;;;9.45;4.32;;;30.10;92.40;;;;;;5094365;28;20024;-73
2022/05/17 12:19:10;;;;;;;8.68;3.55;;;30.60;93.20;;;;;;5083879;28;20027;-73
2022/05/17 12:22:08;;;;;;;11.52;3.50;;;30.50;90.90;;;;;;5103615;28;20052;-70
2022/05/17 12:24:52;;;;;;;11.73;2.10;;;30.10;91.60;;;;;;5110851;28;20036;-72
2022/05/17 12:27:21;;;;;;;3.42;1.35;;;30.00;88.30;;;;;;5099209;28;20023;-73
2022/05/17 12:32:46;;;;;;;8.00;1.70;;;28.90;78.50;;;;;;5084884;28;20028;-73
2022/05/17 12:35:12;;;;;;;6.43;1.75;;;29.00;82.20;;;;;;5106614;28;20396;-73
2022/05/17 12:37:41;;;;;;;5.40;1.98;;;29.00;80.00;;;;;;5104182;28;20039;-72
2022/05/17 12:43:03;;;;;;;12.88;1.63;;;29.10;80.70;;;;;;5082510;28;20023;-73
2022/05/17 12:45:46;;;;;;;5.90;1.83;;;29.20;80.20;;;;;;5097884;28;20426;-73
2022/05/17 12:48:26;;;;;;;5.40;2.10;;;29.50;79.60;;;;;;5102407;28;20138;-73
2022/05/17 12:50:56;;;;;;;7.23;2.03;;;29.10;80.20;;;;;;5082106;28;20042;-72
2022/05/17 12:53:25;;;;;;;8.93;1.98;;;29.80;80.10;;;;;;5103657;28;20115;-73
2022/05/17 12:56:06;;;;;;;8.40;1.92;;;29.80;80.60;;;;;;5106151;28;20043;-73
2022/05/17 12:58:48;;;;;;;10.40;2.03;;;30.10;80.80;;;;;;5096091;27;20096;-73
2022/05/17 13:01:14;;;;;;;5.90;2.10;;;30.50;79.20;;;;;;5105840;28;20020;-72
2022/05/17 13:03:43;;;;;;;6.85;1.80;;;30.60;78.20;;;;;;5091182;28;20454;-74
2022/05/17 13:06:09;;;;;;;4.30;1.73;;;29.80;79.00;;;;;;5091448;28;20445;-72
2022/05/17 13:08:38;;;;;;;4.93;1.65;;;29.50;78.60;;;;;;5091629;28;20387;-72
2022/05/17 13:11:09;;;;;;;8.05;1.55;;;29.30;78.10;;;;;;5091523;28;20034;-72
2022/05/17 13:13:37;;;;;;;6.87;1.50;;;29.60;76.30;;;;;;5091593;28;20028;-72